createdAt,value
2023-08-12T00:00:08.544Z,362.00
2023-08-12T00:01:08.631Z,364.00
2023-08-12T00:02:08.549Z,366.00
2023-08-12T00:03:08.578Z,366.00
2023-08-12T00:04:08.563Z,364.00
2023-08-12T00:05:08.549Z,361.00
2023-08-12T00:06:08.547Z,362.00
2023-08-12T00:07:08.848Z,362.00
2023-08-12T00:08:08.558Z,363.00
2023-08-12T00:09:08.556Z,364.00
2023-08-12T00:10:08.540Z,362.00
2023-08-12T00:11:08.571Z,362.00
2023-08-12T00:12:08.582Z,361.00
2023-08-12T00:13:08.569Z,363.00
2023-08-12T00:14:08.567Z,362.00
2023-08-12T00:15:08.567Z,362.00
2023-08-12T00:16:08.635Z,365.00
2023-08-12T00:17:08.626Z,367.00
2023-08-12T00:18:08.617Z,367.00
2023-08-12T00:19:08.690Z,367.00
2023-08-12T00:20:08.635Z,364.00
2023-08-12T00:21:08.591Z,363.00
2023-08-12T00:22:08.602Z,364.00
2023-08-12T00:23:08.617Z,363.00
2023-08-12T00:24:08.625Z,365.00
2023-08-12T00:25:08.612Z,367.00
2023-08-12T00:26:08.620Z,367.00
2023-08-12T00:27:08.813Z,365.00
2023-08-12T00:28:08.644Z,364.00
2023-08-12T00:29:08.626Z,363.00
2023-08-12T00:30:08.638Z,364.00
2023-08-12T00:31:08.682Z,367.00
2023-08-12T00:32:08.662Z,367.00
2023-08-12T00:33:08.656Z,364.00
2023-08-12T00:34:08.642Z,363.00
2023-08-12T00:35:08.647Z,365.00
2023-08-12T00:36:08.664Z,368.00
2023-08-12T00:37:08.980Z,368.00
2023-08-12T00:38:08.694Z,369.00
2023-08-12T00:39:08.695Z,368.00
2023-08-12T00:40:08.703Z,368.00
2023-08-12T00:41:08.709Z,367.00
2023-08-12T00:42:08.722Z,368.00
2023-08-12T00:43:08.715Z,369.00
2023-08-12T00:44:08.706Z,370.00
2023-08-12T00:45:08.701Z,370.00
2023-08-12T00:46:08.695Z,372.00
2023-08-12T00:47:08.924Z,371.00
2023-08-12T00:48:08.804Z,369.00
2023-08-12T00:49:08.724Z,369.00
2023-08-12T00:50:08.726Z,368.00
2023-08-12T00:51:08.745Z,367.00
2023-08-12T00:52:08.753Z,365.00
2023-08-12T00:53:08.756Z,366.00
2023-08-12T00:54:08.752Z,367.00
2023-08-12T00:55:08.774Z,368.00
2023-08-12T00:56:08.767Z,368.00
2023-08-12T00:57:08.778Z,370.00
2023-08-12T00:58:08.781Z,371.00
2023-08-12T00:59:08.787Z,370.00
2023-08-12T01:00:08.804Z,370.00
2023-08-12T01:01:08.833Z,371.00
2023-08-12T01:02:08.854Z,371.00
2023-08-12T01:03:08.924Z,373.00
2023-08-12T01:04:08.863Z,371.00
2023-08-12T01:05:08.822Z,371.00
2023-08-12T01:06:08.825Z,370.00
2023-08-12T01:07:08.824Z,369.00
2023-08-12T01:08:08.833Z,372.00
2023-08-12T01:09:08.829Z,372.00
2023-08-12T01:10:08.833Z,370.00
2023-08-12T01:11:08.859Z,369.00
2023-08-12T01:12:08.848Z,370.00
2023-08-12T01:13:08.875Z,374.00
2023-08-12T01:14:08.873Z,374.00
2023-08-12T01:15:08.874Z,372.00
2023-08-12T01:16:08.906Z,373.00
2023-08-12T01:17:09.327Z,375.00
2023-08-12T01:18:08.955Z,375.00
2023-08-12T01:19:08.919Z,375.00
2023-08-12T01:20:08.929Z,375.00
2023-08-12T01:21:08.895Z,376.00
2023-08-12T01:22:08.903Z,376.00
2023-08-12T01:23:08.932Z,377.00
2023-08-12T01:24:08.925Z,379.00
2023-08-12T01:25:08.918Z,379.00
2023-08-12T01:26:08.942Z,378.00
2023-08-12T01:27:09.292Z,377.00
2023-08-12T01:28:08.950Z,377.00
2023-08-12T01:29:08.948Z,377.00
2023-08-12T01:30:09.020Z,375.00
2023-08-12T01:31:08.990Z,374.00
2023-08-12T01:32:08.977Z,374.00
2023-08-12T01:33:09.042Z,376.00
2023-08-12T01:34:09.009Z,376.00
2023-08-12T01:35:09.007Z,376.00
2023-08-12T01:36:09.012Z,375.00
2023-08-12T01:37:09.255Z,377.00
2023-08-12T01:38:09.066Z,376.00
2023-08-12T01:39:09.038Z,377.00
2023-08-12T01:40:09.065Z,380.00
2023-08-12T01:41:09.063Z,382.00
2023-08-12T01:42:09.087Z,379.00
2023-08-12T01:43:09.069Z,378.00
2023-08-12T01:44:09.077Z,378.00
2023-08-12T01:45:09.092Z,378.00
2023-08-12T01:46:09.137Z,378.00
2023-08-12T01:47:09.328Z,379.00
2023-08-12T01:48:09.132Z,380.00
2023-08-12T01:49:09.116Z,382.00
2023-08-12T01:50:09.122Z,379.00
2023-08-12T01:51:09.103Z,379.00
2023-08-12T01:52:09.120Z,380.00
2023-08-12T01:53:09.155Z,382.00
2023-08-12T01:54:09.183Z,382.00
2023-08-12T01:55:09.161Z,383.00
2023-08-12T01:56:09.139Z,385.00
2023-08-12T01:57:09.697Z,385.00
2023-08-12T01:58:09.166Z,386.00
2023-08-12T01:59:09.164Z,384.00
2023-08-12T02:00:09.173Z,386.00
2023-08-12T02:01:09.188Z,384.00
2023-08-12T02:02:09.193Z,381.00
2023-08-12T02:03:09.290Z,381.00
2023-08-12T02:04:09.196Z,380.00
2023-08-12T02:05:09.220Z,383.00
2023-08-12T02:06:09.204Z,382.00
2023-08-12T02:07:09.412Z,382.00
2023-08-12T02:08:09.256Z,382.00
2023-08-12T02:09:09.243Z,384.00
2023-08-12T02:10:09.257Z,382.00
2023-08-12T02:11:09.285Z,384.00
2023-08-12T02:12:09.276Z,382.00
2023-08-12T02:13:09.275Z,381.00
2023-08-12T02:14:09.289Z,381.00
2023-08-12T02:15:09.303Z,381.00
2023-08-12T02:16:09.298Z,383.00
2023-08-12T02:17:09.495Z,382.00
2023-08-12T02:18:09.321Z,383.00
2023-08-12T02:19:09.454Z,379.00
2023-08-12T02:20:09.355Z,378.00
2023-08-12T02:21:09.336Z,379.00
2023-08-12T02:22:09.371Z,379.00
2023-08-12T02:23:09.381Z,378.00
2023-08-12T02:24:09.380Z,377.00
2023-08-12T02:25:09.403Z,379.00
2023-08-12T02:26:09.395Z,379.00
2023-08-12T02:27:09.652Z,382.00
2023-08-12T02:28:09.404Z,381.00
2023-08-12T02:29:09.400Z,379.00
2023-08-12T02:30:09.433Z,379.00
2023-08-12T02:31:09.476Z,376.00
2023-08-12T02:32:09.444Z,373.00
2023-08-12T02:33:09.480Z,373.00
2023-08-12T02:34:09.468Z,375.00
2023-08-12T02:35:09.477Z,377.00
2023-08-12T02:36:09.486Z,379.00
2023-08-12T02:37:09.881Z,378.00
2023-08-12T02:38:09.512Z,380.00
2023-08-12T02:39:09.499Z,382.00
2023-08-12T02:40:09.520Z,384.00
2023-08-12T02:41:09.526Z,384.00
2023-08-12T02:42:09.527Z,381.00
2023-08-12T02:43:09.561Z,382.00
2023-08-12T02:44:09.585Z,381.00
2023-08-12T02:45:09.561Z,382.00
2023-08-12T02:46:09.586Z,383.00
2023-08-12T02:47:09.911Z,384.00
2023-08-12T02:48:09.602Z,383.00
2023-08-12T02:49:09.605Z,384.00
2023-08-12T02:50:09.624Z,383.00
2023-08-12T02:51:09.637Z,383.00
2023-08-12T02:52:09.646Z,383.00
2023-08-12T02:53:09.646Z,383.00
2023-08-12T02:54:09.659Z,381.00
2023-08-12T02:55:09.669Z,379.00
2023-08-12T02:56:09.695Z,382.00
2023-08-12T02:57:09.972Z,379.00
2023-08-12T02:58:09.764Z,377.00
2023-08-12T02:59:09.729Z,376.00
2023-08-12T03:00:09.736Z,379.00
2023-08-12T03:01:09.813Z,380.00
2023-08-12T03:02:09.802Z,380.00
2023-08-12T03:03:09.836Z,381.00
2023-08-12T03:04:09.791Z,381.00
2023-08-12T03:05:09.784Z,381.00
2023-08-12T03:06:09.804Z,381.00
2023-08-12T03:07:10.239Z,381.00
2023-08-12T03:08:09.811Z,379.00
2023-08-12T03:09:09.841Z,377.00
2023-08-12T03:10:09.854Z,377.00
2023-08-12T03:11:09.903Z,378.00
2023-08-12T03:12:09.923Z,377.00
2023-08-12T03:13:09.885Z,376.00
2023-08-12T03:14:09.908Z,377.00
2023-08-12T03:15:09.898Z,378.00
2023-08-12T03:16:09.982Z,380.00
2023-08-12T03:17:10.301Z,381.00
2023-08-12T03:18:09.937Z,381.00
2023-08-12T03:19:09.938Z,380.00
2023-08-12T03:20:09.980Z,379.00
2023-08-12T03:21:09.971Z,376.00
2023-08-12T03:22:10.008Z,375.00
2023-08-12T03:23:09.983Z,376.00
2023-08-12T03:24:10.019Z,379.00
2023-08-12T03:25:10.002Z,380.00
2023-08-12T03:26:10.084Z,381.00
2023-08-12T03:27:10.287Z,382.00
2023-08-12T03:28:10.057Z,382.00
2023-08-12T03:29:10.077Z,382.00
2023-08-12T03:30:10.101Z,381.00
2023-08-12T03:31:10.171Z,380.00
2023-08-12T03:32:10.120Z,385.00
2023-08-12T03:33:10.210Z,387.00
2023-08-12T03:34:10.148Z,388.00
2023-08-12T03:35:10.179Z,386.00
2023-08-12T03:36:10.167Z,383.00
2023-08-12T03:37:10.359Z,387.00
2023-08-12T03:38:10.208Z,387.00
2023-08-12T03:39:10.217Z,388.00
2023-08-12T03:40:10.231Z,389.00
2023-08-12T03:41:10.261Z,389.00
2023-08-12T03:42:10.270Z,390.00
2023-08-12T03:43:10.277Z,391.00
2023-08-12T03:44:10.272Z,392.00
2023-08-12T03:45:10.303Z,390.00
2023-08-12T03:46:10.327Z,389.00
2023-08-12T03:47:10.774Z,390.00
2023-08-12T03:48:10.367Z,392.00
2023-08-12T03:49:10.399Z,391.00
2023-08-12T03:50:10.388Z,391.00
2023-08-12T03:51:10.418Z,391.00
2023-08-12T03:52:10.416Z,391.00
2023-08-12T03:53:10.556Z,392.00
2023-08-12T03:54:10.461Z,393.00
2023-08-12T03:55:10.481Z,394.00
2023-08-12T03:56:10.495Z,395.00
2023-08-12T03:57:10.952Z,398.00
2023-08-12T03:58:10.527Z,396.00
2023-08-12T03:59:10.542Z,396.00
2023-08-12T04:00:10.590Z,394.00
2023-08-12T04:01:10.663Z,393.00
2023-08-12T04:02:10.601Z,394.00
2023-08-12T04:03:10.685Z,392.00
2023-08-12T04:04:12.445Z,392.00
2023-08-12T04:05:10.623Z,393.00
2023-08-12T04:06:10.614Z,392.00
2023-08-12T04:07:10.961Z,392.00
2023-08-12T04:08:10.607Z,394.00
2023-08-12T04:09:10.588Z,393.00
2023-08-12T04:10:10.599Z,395.00
2023-08-12T04:11:10.567Z,393.00
2023-08-12T04:12:10.578Z,393.00
2023-08-12T04:13:10.555Z,395.00
2023-08-12T04:14:10.566Z,394.00
2023-08-12T04:15:10.568Z,398.00
2023-08-12T04:16:10.566Z,397.00
2023-08-12T04:17:10.873Z,396.00
2023-08-12T04:18:10.533Z,394.00
2023-08-12T04:19:10.513Z,393.00
2023-08-12T04:20:10.616Z,389.00
2023-08-12T04:21:10.534Z,389.00
2023-08-12T04:22:10.503Z,390.00
2023-08-12T04:23:10.500Z,392.00
2023-08-12T04:24:10.496Z,393.00
2023-08-12T04:25:10.468Z,393.00
2023-08-12T04:26:10.476Z,393.00
2023-08-12T04:27:10.754Z,391.00
2023-08-12T04:28:10.472Z,393.00
2023-08-12T04:29:10.459Z,391.00
2023-08-12T04:30:10.454Z,391.00
2023-08-12T04:31:10.473Z,392.00
2023-08-12T04:32:10.442Z,394.00
2023-08-12T04:33:10.418Z,393.00
2023-08-12T04:34:10.443Z,393.00
2023-08-12T04:35:10.460Z,392.00
2023-08-12T04:36:10.438Z,392.00
2023-08-12T04:37:10.670Z,391.00
2023-08-12T04:38:10.440Z,389.00
2023-08-12T04:39:10.393Z,385.00
2023-08-12T04:40:10.397Z,382.00
2023-08-12T04:41:10.442Z,384.00
2023-08-12T04:42:10.377Z,388.00
2023-08-12T04:43:10.372Z,390.00
2023-08-12T04:44:10.366Z,391.00
2023-08-12T04:45:10.354Z,390.00
2023-08-12T04:46:10.400Z,391.00
2023-08-12T04:47:10.719Z,393.00
2023-08-12T04:48:10.384Z,389.00
2023-08-12T04:49:10.341Z,388.00
2023-08-12T04:50:10.350Z,391.00
2023-08-12T04:51:10.333Z,392.00
2023-08-12T04:52:10.333Z,393.00
2023-08-12T04:53:10.335Z,389.00
2023-08-12T04:54:10.293Z,389.00
2023-08-12T04:55:10.280Z,389.00
2023-08-12T04:56:10.268Z,390.00
2023-08-12T04:57:10.656Z,392.00
2023-08-12T04:58:10.283Z,392.00
2023-08-12T04:59:10.251Z,396.00
2023-08-12T05:00:10.244Z,397.00
2023-08-12T05:01:10.247Z,398.00
2023-08-12T05:02:10.249Z,399.00
2023-08-12T05:03:10.275Z,401.00
2023-08-12T05:04:10.228Z,402.00
2023-08-12T05:05:10.252Z,399.00
2023-08-12T05:06:10.217Z,396.00
2023-08-12T05:07:10.206Z,393.00
2023-08-12T05:08:10.196Z,393.00
2023-08-12T05:09:10.186Z,393.00
2023-08-12T05:10:10.187Z,395.00
2023-08-12T05:11:10.189Z,396.00
2023-08-12T05:12:10.392Z,394.00
2023-08-12T05:13:10.166Z,397.00
2023-08-12T05:14:10.159Z,396.00
2023-08-12T05:15:10.137Z,395.00
2023-08-12T05:16:10.182Z,392.00
2023-08-12T05:17:10.151Z,393.00
2023-08-12T05:18:10.263Z,394.00
2023-08-12T05:19:10.138Z,393.00
2023-08-12T05:20:10.167Z,394.00
2023-08-12T05:21:10.174Z,393.00
2023-08-12T05:22:10.455Z,394.00
2023-08-12T05:23:10.207Z,394.00
2023-08-12T05:24:10.215Z,396.00
2023-08-12T05:25:10.269Z,396.00
2023-08-12T05:26:10.280Z,394.00
2023-08-12T05:27:10.280Z,394.00
2023-08-12T05:28:10.312Z,396.00
2023-08-12T05:29:10.301Z,397.00
2023-08-12T05:30:10.344Z,398.00
2023-08-12T05:31:10.345Z,397.00
2023-08-12T05:32:10.941Z,396.00
2023-08-12T05:33:10.506Z,397.00
2023-08-12T05:34:10.402Z,399.00
2023-08-12T05:35:10.412Z,398.00
2023-08-12T05:36:10.430Z,396.00
2023-08-12T05:37:10.445Z,396.00
2023-08-12T05:38:10.435Z,396.00
2023-08-12T05:39:10.453Z,394.00
2023-08-12T05:40:10.510Z,395.00
2023-08-12T05:41:10.501Z,397.00
2023-08-12T05:42:10.885Z,397.00
2023-08-12T05:43:10.526Z,399.00
2023-08-12T05:44:10.518Z,399.00
2023-08-12T05:45:10.552Z,399.00
2023-08-12T05:46:10.661Z,397.00
2023-08-12T05:47:10.569Z,398.00
2023-08-12T05:48:10.665Z,401.00
2023-08-12T05:49:10.597Z,402.00
2023-08-12T05:50:10.622Z,401.00
2023-08-12T05:51:10.641Z,402.00
2023-08-12T05:52:11.400Z,399.00
2023-08-12T05:53:10.647Z,400.00
2023-08-12T05:54:10.660Z,400.00
2023-08-12T05:55:10.683Z,399.00
2023-08-12T05:56:10.699Z,398.00
2023-08-12T05:57:10.719Z,396.00
2023-08-12T05:58:10.706Z,398.00
2023-08-12T05:59:10.733Z,399.00
2023-08-12T06:00:10.733Z,400.00
2023-08-12T06:01:10.797Z,396.00
2023-08-12T06:02:11.094Z,398.00
2023-08-12T06:03:10.774Z,401.00
2023-08-12T06:04:10.812Z,401.00
2023-08-12T06:05:10.800Z,403.00
2023-08-12T06:06:10.817Z,402.00
2023-08-12T06:07:10.825Z,400.00
2023-08-12T06:08:10.840Z,399.00
2023-08-12T06:09:10.849Z,400.00
2023-08-12T06:10:10.863Z,401.00
2023-08-12T06:11:10.869Z,401.00
2023-08-12T06:12:11.078Z,401.00
2023-08-12T06:13:10.884Z,399.00
2023-08-12T06:14:10.890Z,399.00
2023-08-12T06:15:10.905Z,399.00
2023-08-12T06:16:10.962Z,399.00
2023-08-12T06:17:10.920Z,400.00
2023-08-12T06:18:10.973Z,398.00
2023-08-12T06:19:11.482Z,396.00
2023-08-12T06:20:10.930Z,397.00
2023-08-12T06:21:10.941Z,398.00
2023-08-12T06:22:11.566Z,397.00
2023-08-12T06:23:11.441Z,397.00
2023-08-12T06:24:11.023Z,397.00
2023-08-12T06:25:11.015Z,398.00
2023-08-12T06:26:11.014Z,397.00
2023-08-12T06:27:11.048Z,398.00
2023-08-12T06:28:11.024Z,398.00
2023-08-12T06:29:11.005Z,398.00
2023-08-12T06:30:11.011Z,399.00
2023-08-12T06:31:11.024Z,401.00
2023-08-12T06:32:11.275Z,402.00
2023-08-12T06:33:11.020Z,404.00
2023-08-12T06:34:11.013Z,405.00
2023-08-12T06:35:11.024Z,403.00
2023-08-12T06:36:11.013Z,401.00
2023-08-12T06:37:11.029Z,399.00
2023-08-12T06:38:11.030Z,399.00
2023-08-12T06:39:11.026Z,398.00
2023-08-12T06:40:11.081Z,398.00
2023-08-12T06:41:11.045Z,399.00
2023-08-12T06:42:11.292Z,399.00
2023-08-12T06:43:11.035Z,399.00
2023-08-12T06:44:11.067Z,398.00
2023-08-12T06:45:11.057Z,399.00
2023-08-12T06:46:11.140Z,398.00
2023-08-12T06:47:11.071Z,398.00
2023-08-12T06:48:11.139Z,396.00
2023-08-12T06:49:11.093Z,397.00
2023-08-12T06:50:11.094Z,396.00
2023-08-12T06:51:11.089Z,397.00
2023-08-12T06:52:11.440Z,398.00
2023-08-12T06:53:11.102Z,397.00
2023-08-12T06:54:11.085Z,399.00
2023-08-12T06:55:11.132Z,398.00
2023-08-12T06:56:11.118Z,401.00
2023-08-12T06:57:11.145Z,399.00
2023-08-12T06:58:11.102Z,399.00
2023-08-12T06:59:11.131Z,400.00
2023-08-12T07:00:11.118Z,400.00
2023-08-12T07:02:11.336Z,406.00
2023-08-12T07:03:11.284Z,407.00
2023-08-12T07:04:11.148Z,406.00
2023-08-12T07:05:11.155Z,406.00
2023-08-12T07:06:11.120Z,408.00
2023-08-12T07:07:11.127Z,409.00
2023-08-12T07:08:11.110Z,410.00
2023-08-12T07:09:11.107Z,407.00
2023-08-12T07:10:11.113Z,408.00
2023-08-12T07:11:11.118Z,406.00
2023-08-12T07:12:11.447Z,405.00
2023-08-12T07:13:11.122Z,404.00
2023-08-12T07:14:11.109Z,403.00
2023-08-12T07:15:11.102Z,403.00
2023-08-12T07:16:11.148Z,403.00
2023-08-12T07:17:11.092Z,400.00
2023-08-12T07:18:11.087Z,401.00
2023-08-12T07:19:11.092Z,403.00
2023-08-12T07:20:11.112Z,403.00
2023-08-12T07:21:11.117Z,404.00
2023-08-12T07:22:11.393Z,405.00
2023-08-12T07:23:11.092Z,405.00
2023-08-12T07:24:11.090Z,408.00
2023-08-12T07:25:11.073Z,407.00
2023-08-12T07:26:11.108Z,406.00
2023-08-12T07:27:11.103Z,407.00
2023-08-12T07:28:11.107Z,408.00
2023-08-12T07:29:11.126Z,406.00
2023-08-12T07:30:11.108Z,407.00
2023-08-12T07:31:11.154Z,406.00
2023-08-12T07:32:11.346Z,406.00
2023-08-12T07:33:11.154Z,404.00
2023-08-12T07:34:11.119Z,405.00
2023-08-12T07:35:11.145Z,405.00
2023-08-12T07:36:11.165Z,404.00
2023-08-12T07:37:11.151Z,404.00
2023-08-12T07:38:11.151Z,405.00
2023-08-12T07:39:11.170Z,406.00
2023-08-12T07:40:11.148Z,407.00
2023-08-12T07:41:11.145Z,409.00
2023-08-12T07:42:11.421Z,407.00
2023-08-12T07:43:11.224Z,404.00
2023-08-12T07:44:11.181Z,405.00
2023-08-12T07:45:11.195Z,405.00
2023-08-12T07:46:11.203Z,404.00
2023-08-12T07:47:11.175Z,405.00
2023-08-12T07:48:11.210Z,405.00
2023-08-12T07:49:11.204Z,404.00
2023-08-12T07:50:11.224Z,402.00
2023-08-12T07:51:11.235Z,402.00
2023-08-12T07:52:11.349Z,402.00
2023-08-12T07:53:11.253Z,403.00
2023-08-12T07:54:11.251Z,403.00
2023-08-12T07:55:11.271Z,402.00
2023-08-12T07:56:11.294Z,401.00
2023-08-12T07:57:11.303Z,401.00
2023-08-12T07:58:11.321Z,402.00
2023-08-12T07:59:11.321Z,404.00
2023-08-12T08:00:11.370Z,403.00
2023-08-12T08:01:11.356Z,404.00
2023-08-12T08:02:11.604Z,404.00
2023-08-12T08:03:11.400Z,403.00
2023-08-12T08:04:11.400Z,404.00
2023-08-12T08:05:11.445Z,405.00
2023-08-12T08:06:11.444Z,406.00
2023-08-12T08:07:11.463Z,405.00
2023-08-12T08:08:11.479Z,405.00
2023-08-12T08:09:11.508Z,405.00
2023-08-12T08:10:11.548Z,406.00
2023-08-12T08:11:11.566Z,405.00
2023-08-12T08:12:12.129Z,406.00
2023-08-12T08:13:11.924Z,407.00
2023-08-12T08:14:11.677Z,407.00
2023-08-12T08:15:11.748Z,405.00
2023-08-12T08:16:11.856Z,406.00
2023-08-12T08:17:11.901Z,404.00
2023-08-12T08:18:11.992Z,406.00
2023-08-12T08:19:13.191Z,405.00
2023-08-12T08:20:11.972Z,402.00
2023-08-12T08:21:12.001Z,401.00
2023-08-12T08:22:12.261Z,402.00
2023-08-12T08:23:12.122Z,400.00
2023-08-12T08:24:12.286Z,399.00
2023-08-12T08:25:12.220Z,400.00
2023-08-12T08:26:12.258Z,398.00
2023-08-12T08:27:12.279Z,398.00
2023-08-12T08:28:12.333Z,397.00
2023-08-12T08:29:12.375Z,400.00
2023-08-12T08:30:12.389Z,403.00
2023-08-12T08:31:12.465Z,402.00
2023-08-12T08:32:12.779Z,402.00
2023-08-12T08:33:12.665Z,401.00
2023-08-12T08:34:12.626Z,403.00
2023-08-12T08:35:12.744Z,402.00
2023-08-12T08:36:12.717Z,404.00
2023-08-12T08:37:12.815Z,405.00
2023-08-12T08:38:12.835Z,405.00
2023-08-12T08:39:12.905Z,404.00
2023-08-12T08:40:12.960Z,406.00
2023-08-12T08:41:12.986Z,408.00
2023-08-12T08:42:13.540Z,408.00
2023-08-12T08:43:13.138Z,406.00
2023-08-12T08:44:13.207Z,406.00
2023-08-12T08:45:13.261Z,406.00
2023-08-12T08:46:13.373Z,404.00
2023-08-12T08:47:13.366Z,402.00
2023-08-12T08:48:13.444Z,403.00
2023-08-12T08:49:13.527Z,403.00
2023-08-12T08:50:13.585Z,404.00
2023-08-12T08:51:13.673Z,402.00
2023-08-12T08:52:14.010Z,401.00
2023-08-12T08:53:13.751Z,400.00
2023-08-12T08:54:13.821Z,401.00
2023-08-12T08:55:14.015Z,401.00
2023-08-12T08:57:19.909Z,401.00
2023-08-12T08:58:21.088Z,401.00
2023-08-12T08:59:15.028Z,403.00
2023-08-12T09:00:18.260Z,403.00
2023-08-12T09:01:13.995Z,401.00
2023-08-12T09:02:14.460Z,398.00
2023-08-12T09:03:13.977Z,396.00
2023-08-12T09:04:14.042Z,396.00
2023-08-12T09:05:14.120Z,396.00
2023-08-12T09:06:13.956Z,396.00
2023-08-12T09:07:13.921Z,394.00
2023-08-12T09:08:14.061Z,396.00
2023-08-12T09:09:13.925Z,397.00
2023-08-12T09:10:15.770Z,398.00
2023-08-12T09:11:14.092Z,402.00
2023-08-12T09:12:14.164Z,403.00
2023-08-12T09:13:14.104Z,403.00
2023-08-12T09:14:14.162Z,404.00
2023-08-12T09:15:14.220Z,403.00
2023-08-12T09:16:14.254Z,404.00
2023-08-12T09:17:14.288Z,405.00
2023-08-12T09:18:14.356Z,402.00
2023-08-12T09:19:14.400Z,401.00
2023-08-12T09:20:14.442Z,398.00
2023-08-12T09:21:14.468Z,397.00
2023-08-12T09:22:14.803Z,400.00
2023-08-12T09:23:14.532Z,399.00
2023-08-12T09:24:14.584Z,398.00
2023-08-12T09:25:14.650Z,400.00
2023-08-12T09:26:14.659Z,400.00
2023-08-12T09:27:14.685Z,401.00
2023-08-12T09:28:14.716Z,401.00
2023-08-12T09:29:14.735Z,400.00
2023-08-12T09:30:14.788Z,397.00
2023-08-12T09:31:14.813Z,398.00
2023-08-12T09:32:15.318Z,400.00
2023-08-12T09:33:14.849Z,400.00
2023-08-12T09:34:14.898Z,399.00
2023-08-12T09:35:14.957Z,397.00
2023-08-12T09:36:14.953Z,399.00
2023-08-12T09:37:15.000Z,402.00
2023-08-12T09:38:15.094Z,403.00
2023-08-12T09:39:15.086Z,405.00
2023-08-12T09:40:15.080Z,406.00
2023-08-12T09:41:15.146Z,404.00
2023-08-12T09:42:15.147Z,402.00
2023-08-12T09:43:15.171Z,403.00
2023-08-12T09:44:15.233Z,403.00
2023-08-12T09:45:15.227Z,403.00
2023-08-12T09:46:15.282Z,407.00
2023-08-12T09:47:15.287Z,406.00
2023-08-12T09:48:17.706Z,404.00
2023-08-12T09:49:15.421Z,405.00
2023-08-12T09:50:15.472Z,405.00
2023-08-12T09:51:15.494Z,405.00
2023-08-12T09:52:15.844Z,405.00
2023-08-12T09:53:15.552Z,406.00
2023-08-12T09:54:17.517Z,404.00
2023-08-12T09:55:15.622Z,404.00
2023-08-12T09:56:15.606Z,403.00
2023-08-12T09:57:15.654Z,402.00
2023-08-12T09:58:15.669Z,403.00
2023-08-12T09:59:15.709Z,403.00
2023-08-12T10:00:16.790Z,401.00
2023-08-12T10:01:15.784Z,399.00
2023-08-12T10:02:15.774Z,400.00
2023-08-12T10:03:15.886Z,398.00
2023-08-12T10:04:15.810Z,399.00
2023-08-12T10:05:15.865Z,400.00
2023-08-12T10:06:16.867Z,398.00
2023-08-12T10:07:15.896Z,399.00
2023-08-12T10:08:15.913Z,401.00
2023-08-12T10:09:15.927Z,401.00
2023-08-12T10:10:16.026Z,401.00
2023-08-12T10:11:15.966Z,401.00
2023-08-12T10:12:18.833Z,399.00
2023-08-12T10:13:15.986Z,399.00
2023-08-12T10:14:15.968Z,399.00
2023-08-12T10:15:15.963Z,401.00
2023-08-12T10:16:16.076Z,401.00
2023-08-12T10:17:21.337Z,402.00
2023-08-12T10:18:17.005Z,402.00
2023-08-12T10:19:15.944Z,400.00
2023-08-12T10:20:15.935Z,401.00
2023-08-12T10:21:15.936Z,401.00
2023-08-12T10:22:15.918Z,403.00
2023-08-12T10:23:15.920Z,401.00
2023-08-12T10:24:15.909Z,401.00
2023-08-12T10:25:15.890Z,398.00
2023-08-12T10:26:15.885Z,399.00
2023-08-12T10:27:15.881Z,396.00
2023-08-12T10:28:15.878Z,399.00
2023-08-12T10:29:15.871Z,400.00
2023-08-12T10:30:15.901Z,400.00
2023-08-12T10:31:15.882Z,398.00
2023-08-12T10:32:15.868Z,398.00
2023-08-12T10:33:15.836Z,396.00
2023-08-12T10:34:16.489Z,396.00
2023-08-12T10:35:15.834Z,397.00
2023-08-12T10:36:15.853Z,395.00
2023-08-12T10:37:15.924Z,397.00
2023-08-12T10:38:15.807Z,397.00
2023-08-12T10:39:15.816Z,397.00
2023-08-12T10:40:17.112Z,397.00
2023-08-12T10:41:15.881Z,400.00
2023-08-12T10:42:15.869Z,400.00
2023-08-12T10:43:15.858Z,400.00
2023-08-12T10:44:15.869Z,401.00
2023-08-12T10:45:15.871Z,400.00
2023-08-12T10:46:16.623Z,400.00
2023-08-12T10:47:15.892Z,403.00
2023-08-12T10:48:15.851Z,406.00
2023-08-12T10:49:15.845Z,407.00
2023-08-12T10:50:15.865Z,406.00
2023-08-12T10:51:15.860Z,408.00
2023-08-12T10:52:17.946Z,409.00
2023-08-12T10:53:15.899Z,410.00
2023-08-12T10:54:15.969Z,410.00
2023-08-12T10:55:15.971Z,411.00
2023-08-12T10:56:15.978Z,409.00
2023-08-12T10:57:16.025Z,407.00
2023-08-12T10:58:16.002Z,407.00
2023-08-12T10:59:16.024Z,406.00
2023-08-12T11:00:16.081Z,404.00
2023-08-12T11:01:16.158Z,404.00
2023-08-12T11:02:16.143Z,405.00
2023-08-12T11:03:16.259Z,402.00
2023-08-12T11:04:16.236Z,402.00
2023-08-12T11:05:16.279Z,402.00
2023-08-12T11:06:16.337Z,402.00
2023-08-12T11:07:16.385Z,402.00
2023-08-12T11:08:16.423Z,401.00
2023-08-12T11:09:16.442Z,400.00
2023-08-12T11:10:16.524Z,399.00
2023-08-12T11:11:16.535Z,397.00
2023-08-12T11:12:16.569Z,398.00
2023-08-12T11:13:16.607Z,398.00
2023-08-12T11:14:16.675Z,397.00
2023-08-12T11:15:16.725Z,397.00
2023-08-12T11:16:16.827Z,397.00
2023-08-12T11:17:16.844Z,398.00
2023-08-12T11:18:16.901Z,397.00
2023-08-12T11:19:16.953Z,399.00
2023-08-12T11:20:17.015Z,401.00
2023-08-12T11:21:17.081Z,402.00
2023-08-12T11:22:17.132Z,403.00
2023-08-12T11:23:17.232Z,405.00
2023-08-12T11:24:17.254Z,403.00
2023-08-12T11:25:19.115Z,403.00
2023-08-12T11:26:17.322Z,404.00
2023-08-12T11:27:17.317Z,402.00
2023-08-12T11:28:17.316Z,404.00
2023-08-12T11:29:17.296Z,403.00
2023-08-12T11:30:17.286Z,402.00
2023-08-12T11:31:17.331Z,401.00
2023-08-12T11:32:17.300Z,403.00
2023-08-12T11:33:17.269Z,404.00
2023-08-12T11:34:17.287Z,404.00
2023-08-12T11:35:17.247Z,401.00
2023-08-12T11:36:17.248Z,401.00
2023-08-12T11:37:17.253Z,400.00
2023-08-12T11:38:17.250Z,401.00
2023-08-12T11:39:17.229Z,402.00
2023-08-12T11:40:17.227Z,403.00
2023-08-12T11:41:17.223Z,404.00
2023-08-12T11:42:17.218Z,405.00
2023-08-12T11:43:17.193Z,406.00
2023-08-12T11:44:17.208Z,406.00
2023-08-12T11:45:17.184Z,404.00
2023-08-12T11:46:17.248Z,406.00
2023-08-12T11:47:17.181Z,403.00
2023-08-12T11:48:17.204Z,404.00
2023-08-12T11:49:17.175Z,404.00
2023-08-12T11:50:17.143Z,407.00
2023-08-12T11:51:17.151Z,406.00
2023-08-12T11:52:17.141Z,407.00
2023-08-12T11:53:17.140Z,405.00
2023-08-12T11:54:17.146Z,404.00
2023-08-12T11:55:17.119Z,403.00
2023-08-12T11:56:17.139Z,405.00
2023-08-12T11:57:17.104Z,403.00
2023-08-12T11:58:17.172Z,402.00
2023-08-12T11:59:17.201Z,403.00
2023-08-12T12:00:17.272Z,405.00
2023-08-12T12:01:17.458Z,405.00
2023-08-12T12:02:17.379Z,406.00
2023-08-12T12:03:17.433Z,405.00
2023-08-12T12:04:17.504Z,406.00
2023-08-12T12:05:17.571Z,407.00
2023-08-12T12:06:17.600Z,409.00
2023-08-12T12:07:17.628Z,407.00
2023-08-12T12:08:17.677Z,407.00
2023-08-12T12:09:17.721Z,410.00
2023-08-12T12:10:17.764Z,409.00
2023-08-12T12:11:17.808Z,407.00
2023-08-12T12:12:17.896Z,406.00
2023-08-12T12:13:17.920Z,405.00
2023-08-12T12:14:17.942Z,408.00
2023-08-12T12:15:18.147Z,408.00
2023-08-12T12:16:18.109Z,411.00
2023-08-12T12:17:18.075Z,407.00
2023-08-12T12:18:18.124Z,408.00
2023-08-12T12:19:18.158Z,408.00
2023-08-12T12:20:18.230Z,409.00
2023-08-12T12:21:18.263Z,408.00
2023-08-12T12:22:18.360Z,407.00
2023-08-12T12:23:18.370Z,409.00
2023-08-12T12:24:18.417Z,407.00
2023-08-12T12:25:18.454Z,405.00
2023-08-12T12:26:18.483Z,403.00
2023-08-12T12:27:18.532Z,402.00
2023-08-12T12:28:18.566Z,403.00
2023-08-12T12:29:18.630Z,405.00
2023-08-12T12:30:18.680Z,403.00